createdAt,value
2023-02-18T00:00:24.633Z,46.83
2023-02-18T00:15:27.049Z,48.128
2023-02-18T00:30:29.315Z,49.558
2023-02-18T00:45:31.766Z,48.653
2023-02-18T01:00:34.020Z,48.746
2023-02-18T01:15:36.290Z,50.03
2023-02-18T01:30:38.584Z,51.237
2023-02-18T01:45:40.874Z,52.567
2023-02-18T02:00:43.226Z,52.873
2023-02-18T02:15:45.480Z,52.729
2023-02-18T02:30:47.737Z,53.171
2023-02-18T02:45:50.087Z,53.694
2023-02-18T03:00:52.388Z,53.199
2023-02-18T03:15:54.711Z,52.305
2023-02-18T03:30:56.919Z,54.743
2023-02-18T03:46:02.610Z,55.08
2023-02-18T04:01:04.967Z,55.197
2023-02-18T04:16:07.670Z,54.197
2023-02-18T04:31:10.316Z,54.42
2023-02-18T04:46:12.660Z,55.038
2023-02-18T05:01:14.953Z,57.136
2023-02-18T05:16:17.242Z,56.615
2023-02-18T05:31:19.643Z,56.425
2023-02-18T05:46:22.282Z,57.712
2023-02-18T06:01:24.557Z,57.581
2023-02-18T06:16:26.810Z,57.187
2023-02-18T06:31:29.204Z,57.939
2023-02-18T06:46:31.600Z,56.745
2023-02-18T07:01:33.931Z,56.481
2023-02-18T07:16:36.237Z,56.3
2023-02-18T07:31:38.578Z,56.534
2023-02-18T07:46:41.101Z,57.222
2023-02-18T08:01:44.210Z,58.437
2023-02-18T08:16:47.402Z,57.34
2023-02-18T08:31:49.852Z,59.385
2023-02-18T08:46:52.290Z,58.457
2023-02-18T09:01:54.738Z,57.882
2023-02-18T09:16:56.998Z,59.856
2023-02-18T09:31:59.373Z,61.163
2023-02-18T09:47:01.949Z,59.304
2023-02-18T10:02:04.228Z,60.627
2023-02-18T10:17:06.450Z,60.298
2023-02-18T10:32:08.724Z,61.89
2023-02-18T10:47:11.042Z,60.304
2023-02-18T11:02:13.267Z,60.165
2023-02-18T11:17:15.497Z,60.632
2023-02-18T11:32:17.688Z,59.273
2023-02-18T11:47:20.052Z,59.774
2023-02-18T12:02:22.417Z,59.792
2023-02-18T12:17:24.653Z,60.172
2023-02-18T12:32:27.129Z,60.756
2023-02-18T12:47:29.496Z,59.968
2023-02-18T13:02:31.701Z,59.602
2023-02-18T13:17:33.883Z,60.143
2023-02-18T13:32:36.100Z,59.46
2023-02-18T13:47:38.409Z,59.989
2023-02-18T14:02:40.716Z,59.625
2023-02-18T14:17:42.972Z,59.551
2023-02-18T14:32:45.212Z,60.066
2023-02-18T14:47:47.676Z,59.982
2023-02-18T15:02:49.882Z,60.26
2023-02-18T15:17:52.094Z,63.647
2023-02-18T15:32:54.559Z,60.45
2023-02-18T15:47:56.872Z,60.914
2023-02-18T16:02:59.139Z,62.416
2023-02-18T16:18:01.416Z,62.18
2023-02-18T16:33:03.681Z,61.99
2023-02-18T16:48:05.904Z,61.319
2023-02-18T17:03:08.145Z,61.244
2023-02-18T17:18:10.441Z,64.703
2023-02-18T17:33:12.775Z,61.525
2023-02-18T17:48:15.079Z,59.757
2023-02-18T18:03:17.308Z,57.861
2023-02-18T18:18:20.080Z,57.636
2023-02-18T18:33:22.545Z,55.823
2023-02-18T18:48:25.132Z,54.072
2023-02-18T19:03:27.557Z,54.364
2023-02-18T19:18:29.800Z,52.347
2023-02-18T19:33:32.246Z,52.024
2023-02-18T19:48:34.543Z,47.655
2023-02-18T20:03:36.844Z,48.604
2023-02-18T20:18:39.146Z,48.054
2023-02-18T20:33:41.395Z,47.559
2023-02-18T20:48:43.798Z,45.769
2023-02-18T21:03:46.086Z,46.108
2023-02-18T21:18:48.360Z,46.136
2023-02-18T21:33:50.637Z,44.201
2023-02-18T21:48:52.972Z,46.641
2023-02-18T22:03:55.317Z,45.589
2023-02-18T22:18:57.712Z,43.984
2023-02-18T22:34:00.157Z,51.434
2023-02-18T22:49:02.509Z,51.296
2023-02-18T23:04:04.853Z,55.472
2023-02-18T23:19:07.149Z,54.092
2023-02-18T23:34:09.502Z,53.573
2023-02-18T23:49:11.833Z,52.601
